Map

Track Data

SID SEASON NUMBER BASIN SUBBASIN NAME ISO_TIME NATURE LAT LON WMO_WIND WMO_PRES WMO_AGENCY TRACK_TYPE DIST2LAND LANDFALL IFLAG USA_AGENCY USA_ATCF_ID USA_LAT USA_LON USA_RECORD USA_STATUS USA_WIND USA_PRES USA_SSHS USA_R34_NE USA_R34_SE USA_R34_SW USA_R34_NW USA_R50_NE USA_R50_SE USA_R50_SW USA_R50_NW USA_R64_NE USA_R64_SE USA_R64_SW USA_R64_NW USA_POCI USA_ROCI USA_RMW USA_EYE TOKYO_LAT TOKYO_LON TOKYO_GRADE TOKYO_WIND TOKYO_PRES TOKYO_R50_DIR TOKYO_R50_LONG TOKYO_R50_SHORT TOKYO_R30_DIR TOKYO_R30_LONG TOKYO_R30_SHORT TOKYO_LAND CMA_LAT CMA_LON CMA_CAT CMA_WIND CMA_PRES HKO_LAT HKO_LON HKO_CAT HKO_WIND HKO_PRES NEWDELHI_LAT NEWDELHI_LON NEWDELHI_GRADE NEWDELHI_WIND NEWDELHI_PRES NEWDELHI_CI NEWDELHI_DP NEWDELHI_POCI REUNION_LAT REUNION_LON REUNION_TYPE REUNION_WIND REUNION_PRES REUNION_TNUM REUNION_CI REUNION_RMW REUNION_R34_NE REUNION_R34_SE REUNION_R34_SW REUNION_R34_NW REUNION_R50_NE REUNION_R50_SE REUNION_R50_SW REUNION_R50_NW REUNION_R64_NE REUNION_R64_SE REUNION_R64_SW REUNION_R64_NW BOM_LAT BOM_LON BOM_TYPE BOM_WIND BOM_PRES BOM_TNUM BOM_CI BOM_RMW BOM_R34_NE BOM_R34_SE BOM_R34_SW BOM_R34_NW BOM_R50_NE BOM_R50_SE BOM_R50_SW BOM_R50_NW BOM_R64_NE BOM_R64_SE BOM_R64_SW BOM_R64_NW BOM_ROCI BOM_POCI BOM_EYE BOM_POS_METHOD BOM_PRES_METHOD NADI_LAT NADI_LON NADI_CAT NADI_WIND NADI_PRES WELLINGTON_LAT WELLINGTON_LON WELLINGTON_WIND WELLINGTON_PRES DS824_LAT DS824_LON DS824_STAGE DS824_WIND DS824_PRES TD9636_LAT TD9636_LON TD9636_STAGE TD9636_WIND TD9636_PRES TD9635_LAT TD9635_LON TD9635_WIND TD9635_PRES TD9635_ROCI NEUMANN_LAT NEUMANN_LON NEUMANN_CLASS NEUMANN_WIND NEUMANN_PRES MLC_LAT MLC_LON MLC_CLASS MLC_WIND MLC_PRES USA_GUST BOM_GUST BOM_GUST_PER REUNION_GUST REUNION_GUST_PER USA_SEAHGT USA_SEARAD_NE USA_SEARAD_SE USA_SEARAD_SW USA_SEARAD_NW STORM_SPEED STORM_DIR
1965199N26180 1965 60 EP CP NOT_NAMED 1965-07-17 12:00:00 TS 26.2000 180.000 main 2099 2099 __O___________ -1 26.2000 180.000 1 29 1008 15 275
1965199N26180 1965 60 WP MM NOT_NAMED 1965-07-17 15:00:00 TS 26.2635 179.173 main 2180 2180 __P___________ -1 26.2635 179.173 1 29 1007 14 274
1965199N26180 1965 60 WP MM NOT_NAMED 1965-07-17 18:00:00 TS 26.3000 178.400 main 2259 2259 __O___________ -1 26.3000 178.400 1 29 1006 13 272
1965199N26180 1965 60 WP MM NOT_NAMED 1965-07-17 21:00:00 TS 26.2997 177.732 main 2328 2328 __P___________ -1 26.2997 177.732 1 29 1006 11 270
1965199N26180 1965 60 WP MM NOT_NAMED 1965-07-18 00:00:00 TS 26.3000 177.200 main 2377 2377 __O___________ -1 26.3000 177.200 1 29 1006 8 272
1965199N26180 1965 60 WP MM NOT_NAMED 1965-07-18 03:00:00 TS 26.3343 176.842 main 2417 2417 __P___________ -1 26.3343 176.842 1 29 1006 6 279
1965199N26180 1965 60 WP MM NOT_NAMED 1965-07-18 06:00:00 TS 26.4000 176.500 main 2448 2448 __O___________ -1 26.4000 176.500 1 29 1006 8 281
1965199N26180 1965 60 WP MM NOT_NAMED 1965-07-18 09:00:00 TS 26.4928 175.965 main 2498 2498 __P___________ -1 26.4928 175.965 1 29 1005 10 281
1965199N26180 1965 60 WP MM NOT_NAMED 1965-07-18 12:00:00 TS 26.6000 175.400 main 2559 2559 __O___________ -1 26.6000 175.400 1 29 1004 10 282
1965199N26180 1965 60 WP MM NOT_NAMED 1965-07-18 15:00:00 TS 26.6849 174.912 main 2610 2610 __P___________ -1 26.6849 174.912 1 29 1004 8 284
1965199N26180 1965 60 WP MM NOT_NAMED 1965-07-18 18:00:00 TS 26.8000 174.500 main 2650 2650 __O___________ -1 26.8000 174.500 1 29 1004 7 295
1965199N26180 1965 60 WP MM NOT_NAMED 1965-07-18 21:00:00 TS 26.9771 174.200 main 2682 2682 __P___________ -1 26.9771 174.200 1 29 1004 7 307
1965199N26180 1965 60 WP MM NOT_NAMED 1965-07-19 00:00:00 TS 27.2000 173.900 main 2714 2714 __O___________ -1 27.2000 173.900 1 29 1004 8 306
1965199N26180 1965 60 WP MM NOT_NAMED 1965-07-19 03:00:00 TS 27.4350 173.480 main 2756 2756 __P___________ -1 27.4350 173.480 1 29 1004 9 302
1965199N26180 1965 60 WP MM NOT_NAMED 1965-07-19 06:00:00 TS 27.7000 173.000 main 2809 2798 __O___________ -1 27.7000 173.000 1 29 1004 10 300
1965199N26180 1965 60 WP MM NOT_NAMED 1965-07-19 09:00:00 TS 27.9248 172.514 main 2798 2733 __P___________ -1 27.9248 172.514 1 29 1005 11 304
1965199N26180 1965 60 WP MM NOT_NAMED 1965-07-19 12:00:00 TS 28.3000 172.000 main 2733 2644 __O___________ -1 28.3000 172.000 1 29 1006 14 317
1965199N26180 1965 60 WP MM NOT_NAMED 1965-07-19 15:00:00 TS 28.9680 171.399 main 2635 2535 __P___________ -1 28.9680 171.399 1 29 1006 18 327
1965199N26180 1965 60 WP MM NOT_NAMED 1965-07-19 18:00:00 TS 29.8000 170.900 main 2535 2454 __O___________ -1 29.8000 170.900 1 29 1006 18 339
1965199N26180 1965 60 WP MM NOT_NAMED 1965-07-19 21:00:00 TS 30.6796 170.659 main 2445 2371 __P___________ -1 30.6796 170.659 1 29 1006 17 351
1965199N26180 1965 60 WP MM NOT_NAMED 1965-07-20 00:00:00 TS 31.5000 170.600 main 2371 2321 __O___________ -1 31.5000 170.600 1 29 1006 14 358
1965199N26180 1965 60 WP MM NOT_NAMED 1965-07-20 03:00:00 TS 32.1099 170.619 main 2321 2287 __P___________ -1 32.1099 170.619 1 29 1006 11 5
1965199N26180 1965 60 WP MM NOT_NAMED 1965-07-20 06:00:00 TS 32.6000 170.700 main 2287 2254 __O___________ -1 32.6000 170.700 1 29 1006 10 7
1965199N26180 1965 60 WP MM NOT_NAMED 1965-07-20 09:00:00 TS 33.0575 170.743 main 2246 2218 __P___________ -1 33.0575 170.743 1 29 1006 9 5
1965199N26180 1965 60 WP MM NOT_NAMED 1965-07-20 12:00:00 TS 33.5000 170.800 main 2218 2174 __O___________ -1 33.5000 170.800 1 29 1006 10 8
1965199N26180 1965 60 WP MM NOT_NAMED 1965-07-20 15:00:00 TS 34.0300 170.900 main 2174 2130 __P___________ -1 34.0300 170.900 1 1006 10 10
1965199N26180 1965 60 WP MM NOT_NAMED 1965-07-20 18:00:00 TS 34.5000 171.000 main 2130 2106 __O___________ -1 34.5000 171.000 0 1006 8 12
1965199N26180 1965 60 WP MM NOT_NAMED 1965-07-20 21:00:00 TS 34.7875 171.087 main 2106 2087 __P___________ -1 34.7875 171.087 0 1007 5 9
1965199N26180 1965 60 WP MM NOT_NAMED 1965-07-21 00:00:00 TS 35.0000 171.100 main 2087 2063 __O___________ -1 35.0000 171.100 0 1008 5 350
1965199N26180 1965 60 WP MM NOT_NAMED 1965-07-21 03:00:00 TS 35.2425 170.988 main 2063 2025 __P___________ -1 35.2425 170.988 0 1008 6 334
1965199N26180 1965 60 WP MM NOT_NAMED 1965-07-21 06:00:00 TS 35.5000 170.800 main 2025 1992 __O___________ -1 35.5000 170.800 0 1008 6 324
1965199N26180 1965 60 WP MM NOT_NAMED 1965-07-21 09:00:00 TS 35.7625 170.526 main 1983 1950 __P___________ -1 35.7625 170.526 0 1008 7 332
1965199N26180 1965 60 WP MM NOT_NAMED 1965-07-21 12:00:00 TS 36.1000 170.400 main 1950 1917 __O___________ -1 36.1000 170.400 0 1008 8 5
1965199N26180 1965 60 WP MM NOT_NAMED 1965-07-21 15:00:00 TS 36.5773 170.630 main 1912 1891 __P___________ -1 36.5773 170.630 0 1008 11 29
1965199N26180 1965 60 WP MM NOT_NAMED 1965-07-21 18:00:00 TS 37.1000 171.100 main 1891 1875 __O___________ -1 37.1000 171.100 0 1008 13 40
1965199N26180 1965 60 WP MM NOT_NAMED 1965-07-21 21:00:00 TS 37.5707 171.677 main 1877 1868 __P___________ -1 37.5707 171.677 0 1009 13 47
1965199N26180 1965 60 WP MM NOT_NAMED 1965-07-22 00:00:00 TS 38.0000 172.300 main 1873 __O___________ -1 38.0000 172.300 0 1010 13 49

About IBTrACS Database

This database is a web-friendly format of International Best Track Archive for Climate Stewardship (IBTrACS), a global best track data archive curated by NOAA dating back to 1842.

Updated: 2021-10-21